Time;durP1;ratioP1;P1;durP2;ratioP2;P2;SDS_P1;SDS_P2;PMS_P1;PMS_P2;Temp;Humidity;BMP_temperature;BMP_pressure;BME280_temperature;BME280_humidity;BME280_pressure;Samples;Min_cycle;Max_cycle;Signal;HPM_P1;HPM_P2
2023/07/17 00:02:04;;;;;;;;;1.00;1.00;;;;;22.08;44.50;101334.16;5079157;28;45344;-73
2023/07/17 00:04:30;;;;;;;;;1.00;1.00;;;;;21.91;44.52;101318.47;5079674;28;45280;-74
2023/07/17 00:06:55;;;;;;;;;4.33;2.00;;;;;22.01;44.57;101344.09;5078891;27;46261;-72
2023/07/17 00:09:20;;;;;;;;;1.33;1.33;;;;;22.03;44.66;101352.88;5079117;27;45336;-72
2023/07/17 00:11:46;;;;;;;;;1.67;1.67;;;;;21.99;44.97;101350.75;5079367;28;45175;-74
2023/07/17 00:14:12;;;;;;;;;3.00;3.00;;;;;21.95;44.84;101344.94;5080168;28;45385;-72
2023/07/17 00:16:37;;;;;;;;;3.00;2.00;;;;;21.58;45.18;101294.84;5079484;28;45448;-72
2023/07/17 00:19:02;;;;;;;;;3.33;2.00;;;;;21.90;45.36;101354.72;5078723;28;45350;-73
2023/07/17 00:21:28;;;;;;;;;1.33;1.33;;;;;21.83;45.51;101342.00;5079057;28;45547;-73
2023/07/17 00:23:53;;;;;;;;;1.67;1.67;;;;;21.85;45.94;101349.91;5078843;27;45389;-72
2023/07/17 00:26:18;;;;;;;;;3.00;3.00;;;;;21.81;45.98;101338.63;5078691;28;45641;-72
2023/07/17 00:28:43;;;;;;;;;3.00;3.00;;;;;21.76;46.37;101334.88;5079608;28;49247;-74
2023/07/17 00:31:09;;;;;;;;;2.67;2.67;;;;;21.82;45.88;101339.47;5079596;28;45284;-73
2023/07/17 00:33:34;;;;;;;;;3.00;3.00;;;;;21.76;46.25;101332.16;5078967;27;45605;-71
2023/07/17 00:36:00;;;;;;;;;3.00;2.00;;;;;21.75;45.95;101334.03;5077934;27;45489;-70
2023/07/17 00:38:25;;;;;;;;;2.00;2.00;;;;;21.79;46.00;101340.72;5078566;27;45399;-72
2023/07/17 00:40:50;;;;;;;;;5.00;3.00;;;;;21.66;46.32;101318.19;5078244;27;45435;-73
2023/07/17 00:43:16;;;;;;;;;2.00;1.00;;;;;21.73;46.24;101338.00;5062549;28;45462;-72
2023/07/17 00:45:44;;;;;;;;;2.00;2.00;;;;;21.74;46.69;101336.94;5078554;28;45708;-73
2023/07/17 00:48:10;;;;;;;;;4.33;2.00;;;;;21.70;46.28;101343.81;5078257;28;45179;-73
2023/07/17 00:50:37;;;;;;;;;2.33;2.33;;;;;21.62;46.99;101333.13;5078601;28;45225;-73
2023/07/17 00:53:03;;;;;;;;;2.00;2.00;;;;;21.69;47.25;101339.44;5077257;27;45355;-72
2023/07/17 00:55:30;;;;;;;;;4.00;2.67;;;;;21.73;47.02;101346.09;5060071;28;47108;-72
2023/07/17 00:57:55;;;;;;;;;2.00;2.00;;;;;21.78;47.37;101354.44;5078429;28;45529;-72
2023/07/17 01:00:23;;;;;;;;;3.00;2.00;;;;;21.74;47.47;101353.19;5078530;28;45253;-74
2023/07/17 01:02:51;;;;;;;;;2.00;2.00;;;;;21.74;47.79;101355.91;5078324;28;45554;-73
2023/07/17 01:05:16;;;;;;;;;4.00;4.00;;;;;21.71;47.82;101356.31;5060959;28;47578;-72
2023/07/17 01:07:41;;;;;;;;;2.67;2.00;;;;;21.64;47.84;101347.34;5079202;27;45500;-72
2023/07/17 01:10:08;;;;;;;;;2.33;2.00;;;;;21.50;48.01;101330.19;5078918;28;46041;-72
2023/07/17 01:12:35;;;;;;;;;3.33;3.00;;;;;21.69;48.11;101366.50;5078494;28;45316;-71
2023/07/17 01:15:01;;;;;;;;;2.67;2.67;;;;;21.58;48.40;101343.53;5077731;28;45641;-73
2023/07/17 01:17:26;;;;;;;;;2.00;2.00;;;;;21.29;48.03;101295.97;5077974;28;45266;-72
2023/07/17 01:19:52;;;;;;;;;3.00;2.00;;;;;21.52;47.85;101345.19;5077911;28;45738;-71
2023/07/17 01:22:31;;;;;;;;;2.00;2.00;;;;;21.66;47.77;101375.03;5078031;27;45332;-72
2023/07/17 01:24:57;;;;;;;;;2.00;2.00;;;;;21.53;47.67;101354.97;5059376;28;46549;-73
2023/07/17 01:27:22;;;;;;;;;1.00;1.00;;;;;21.65;48.29;101365.25;5077854;28;45474;-72
2023/07/17 01:29:47;;;;;;;;;2.00;2.00;;;;;21.65;47.96;101370.66;5077864;27;45442;-72
2023/07/17 01:32:13;;;;;;;;;2.67;2.67;;;;;21.43;47.71;101335.59;5059658;28;47405;-73
2023/07/17 01:34:41;;;;;;;;;2.00;2.00;;;;;21.54;47.36;101362.06;5055278;28;46347;-73
2023/07/17 01:37:07;;;;;;;;;3.00;2.00;;;;;21.40;46.93;101330.56;5056097;28;45447;-71
2023/07/17 01:39:33;;;;;;;;;1.75;1.75;;;;;21.52;47.33;101366.84;5055138;28;45507;-72
2023/07/17 01:41:58;;;;;;;;;1.00;1.00;;;;;21.54;47.05;101369.34;5056820;28;45533;-71
2023/07/17 01:44:27;;;;;;;;;1.00;1.00;;;;;21.45;46.72;101360.56;5057082;28;47226;-73
2023/07/17 01:46:56;;;;;;;;;1.33;1.33;;;;;21.46;46.90;101358.69;5057245;28;45479;-72
2023/07/17 01:49:21;;;;;;;;;3.00;1.67;;;;;21.48;47.02;101365.56;5056126;28;45446;-72
2023/07/17 01:51:47;;;;;;;;;1.33;1.33;;;;;21.48;46.92;101373.69;5055276;28;45427;-71
2023/07/17 01:54:12;;;;;;;;;3.00;2.00;;;;;21.49;46.82;101367.25;5054743;28;46106;-73
2023/07/17 01:56:38;;;;;;;;;1.33;1.33;;;;;21.51;46.46;101380.56;5054466;28;45436;-74
2023/07/17 01:59:03;;;;;;;;;1.00;1.00;;;;;21.49;47.22;101383.47;5055162;28;45486;-72
2023/07/17 02:01:28;;;;;;;;;2.00;1.00;;;;;21.46;47.09;101372.22;5055311;28;45403;-74
2023/07/17 02:03:54;;;;;;;;;1.00;1.00;;;;;21.45;47.39;101374.09;5054827;28;45554;-72
2023/07/17 02:06:19;;;;;;;;;1.00;1.00;;;;;21.41;47.56;101375.50;5056823;28;49802;-72
2023/07/17 02:08:44;;;;;;;;;1.33;1.33;;;;;21.35;48.03;101360.09;5056975;28;45236;-70
2023/07/17 02:11:10;;;;;;;;;4.00;3.00;;;;;21.34;48.52;101379.22;5057100;28;45276;-70
2023/07/17 02:13:35;;;;;;;;;3.00;2.00;;;;;21.24;48.26;101369.59;5055415;28;48941;-71
2023/07/17 02:16:00;;;;;;;;;2.00;2.00;;;;;21.24;48.63;101376.88;5056822;28;45327;-72
2023/07/17 02:18:25;;;;;;;;;2.67;2.67;;;;;21.21;48.92;101377.22;5056532;28;45210;-71
2023/07/17 02:20:51;;;;;;;;;2.00;2.00;;;;;21.14;49.35;101368.25;5057254;28;45340;-70
2023/07/17 02:23:17;;;;;;;;;1.67;1.67;;;;;21.14;49.27;101369.06;5057026;28;45546;-72
2023/07/17 02:25:42;;;;;;;;;4.33;4.00;;;;;21.08;49.83;101366.34;5056615;28;45502;-72
2023/07/17 02:28:08;;;;;;;;;3.00;3.00;;;;;21.14;49.94;101379.06;5056672;28;46017;-72
2023/07/17 02:30:33;;;;;;;;;3.00;3.00;;;;;21.09;49.85;101374.25;5057086;28;45419;-73
2023/07/17 02:32:59;;;;;;;;;2.00;2.00;;;;;21.11;50.01;101374.06;5056836;28;47035;-73
2023/07/17 02:35:24;;;;;;;;;2.67;1.33;;;;;21.09;50.28;101386.94;5056728;28;45333;-72
2023/07/17 02:37:49;;;;;;;;;2.00;2.00;;;;;21.06;50.22;101376.53;5068878;28;45461;-73
2023/07/17 02:40:15;;;;;;;;;2.00;2.00;;;;;20.91;50.02;101363.09;5077022;28;45407;-73
2023/07/17 02:42:41;;;;;;;;;3.67;1.67;;;;;21.03;50.25;101390.44;5076605;28;46368;-71
2023/07/17 02:45:07;;;;;;;;;2.00;2.00;;;;;20.84;50.17;101367.63;5076582;28;45465;-79
2023/07/17 02:47:32;;;;;;;;;2.67;2.00;;;;;20.97;50.24;101392.03;5076787;27;45322;-72
2023/07/17 02:49:58;;;;;;;;;2.67;2.67;;;;;20.89;50.41;101382.22;5077099;27;45258;-73
2023/07/17 02:52:23;;;;;;;;;3.67;2.33;;;;;20.89;50.60;101393.03;5058483;28;47429;-72
2023/07/17 02:54:49;;;;;;;;;2.67;2.00;;;;;20.86;50.89;101398.00;5076794;27;45306;-73
2023/07/17 02:57:15;;;;;;;;;5.00;4.00;;;;;20.84;50.94;101410.88;5076315;28;45267;-73
2023/07/17 02:59:40;;;;;;;;;2.00;2.00;;;;;20.73;50.65;101390.59;5058503;28;45464;-72
2023/07/17 03:02:06;;;;;;;;;4.00;2.00;;;;;20.80;50.51;101401.47;5076755;28;46507;-72
2023/07/17 03:04:31;;;;;;;;;3.33;3.00;;;;;20.34;50.51;101345.97;5076250;28;51868;-72
2023/07/17 03:06:57;;;;;;;;;2.00;2.00;;;;;20.71;50.49;101400.78;5076726;28;45435;-71
2023/07/17 03:09:22;;;;;;;;;2.67;2.67;;;;;20.60;50.51;101394.00;5058375;28;45270;-72
2023/07/17 03:11:48;;;;;;;;;3.00;2.00;;;;;20.62;50.51;101401.91;5076100;28;46431;-71
2023/07/17 03:14:14;;;;;;;;;1.33;1.00;;;;;20.64;50.62;101411.53;5058068;28;46485;-73
2023/07/17 03:16:39;;;;;;;;;3.00;1.33;;;;;20.60;50.35;101414.78;5079589;28;45320;-72
2023/07/17 03:19:05;;;;;;;;;2.00;2.00;;;;;20.45;50.69;101390.56;5079838;27;45520;-73
2023/07/17 03:21:30;;;;;;;;;1.67;1.67;;;;;20.57;50.81;101398.97;5079630;28;53971;-72
2023/07/17 03:23:55;;;;;;;;;2.00;2.00;;;;;20.57;51.00;101407.91;5061431;28;46086;-71
2023/07/17 03:26:21;;;;;;;;;2.00;2.00;;;;;20.56;50.62;101408.09;5079594;28;45443;-73
2023/07/17 03:28:46;;;;;;;;;3.33;2.00;;;;;20.38;50.75;101383.38;5080348;27;45292;-72
2023/07/17 03:31:12;;;;;;;;;2.67;2.67;;;;;20.49;50.60;101407.22;5079596;28;45929;-72
2023/07/17 03:33:37;;;;;;;;;2.75;1.25;;;;;20.53;50.57;101419.31;5079442;28;45240;-74
2023/07/17 03:36:02;;;;;;;;;3.00;3.00;;;;;20.53;50.78;101420.13;5079799;27;45409;-71
2023/07/17 03:38:28;;;;;;;;;2.25;1.25;;;;;20.48;50.61;101417.19;5079913;27;45225;-72
2023/07/17 03:40:53;;;;;;;;;2.50;2.50;;;;;20.50;50.60;101431.34;5079431;28;46243;-74
2023/07/17 03:43:18;;;;;;;;;1.50;1.50;;;;;20.34;50.76;101412.63;5079207;28;45969;-72
2023/07/17 03:45:45;;;;;;;;;1.00;1.00;;;;;20.01;50.17;101355.56;5079480;27;45407;-71
2023/07/17 03:48:10;;;;;;;;;4.67;3.00;;;;;20.40;50.51;101432.63;5080189;28;45534;-71
2023/07/17 03:50:35;;;;;;;;;3.00;1.50;;;;;20.42;50.55;101433.31;5060997;28;47320;-73
2023/07/17 03:53:01;;;;;;;;;1.50;1.50;;;;;20.06;50.46;101385.56;5079149;28;45202;-70
2023/07/17 03:55:26;;;;;;;;;4.67;3.00;;;;;20.25;50.98;101422.75;5079161;28;45456;-70
2023/07/17 03:57:52;;;;;;;;;2.00;2.00;;;;;20.14;51.28;101401.63;5079156;27;45483;-73
2023/07/17 04:00:17;;;;;;;;;3.25;2.00;;;;;20.32;50.77;101449.81;5079239;28;46563;-72
2023/07/17 04:02:44;;;;;;;;;1.67;1.00;;;;;20.11;50.88;101403.88;5079289;28;45425;-71
2023/07/17 04:05:10;;;;;;;;;3.00;3.00;;;;;20.22;50.93;101430.34;5079527;28;45257;-72
2023/07/17 04:07:36;;;;;;;;;2.00;1.00;;;;;20.25;51.18;101444.34;5079235;28;45490;-72
2023/07/17 04:10:01;;;;;;;;;4.00;3.00;;;;;20.14;51.20;101430.47;5078935;28;46815;-72
2023/07/17 04:12:27;;;;;;;;;1.67;1.67;;;;;20.02;51.13;101419.31;5078698;28;45461;-73
2023/07/17 04:14:52;;;;;;;;;1.00;1.00;;;;;19.88;50.98;101404.84;5060625;27;45459;-74
2023/07/17 04:17:17;;;;;;;;;1.33;0.33;;;;;20.05;50.74;101419.81;5078815;28;51358;-73
2023/07/17 04:19:43;;;;;;;;;4.33;3.00;;;;;20.19;50.42;101445.06;5060350;28;48724;-71
2023/07/17 04:22:08;;;;;;;;;1.00;1.00;;;;;20.04;50.49;101409.19;5060781;28;45290;-71
2023/07/17 04:24:34;;;;;;;;;2.00;2.00;;;;;20.09;50.50;101425.66;5079088;27;45495;-71
2023/07/17 04:26:59;;;;;;;;;1.67;1.67;;;;;20.21;50.22;101444.88;5060248;28;45287;-71
2023/07/17 04:29:25;;;;;;;;;1.67;1.33;;;;;20.23;49.88;101448.25;5078349;27;46962;-71
2023/07/17 04:31:50;;;;;;;;;1.00;0.00;;;;;20.20;49.89;101444.06;5078416;28;45548;-70
2023/07/17 04:34:16;;;;;;;;;2.00;1.00;;;;;19.88;50.32;101385.13;5078643;28;46615;-73
2023/07/17 04:36:41;;;;;;;;;1.33;1.00;;;;;20.21;49.64;101431.38;5079067;28;45392;-71
2023/07/17 04:39:06;;;;;;;;;2.00;1.67;;;;;20.32;49.24;101439.00;5078251;28;46909;-72
2023/07/17 04:41:32;;;;;;;;;2.33;1.00;;;;;20.43;49.28;101464.72;5078443;28;45446;-73
2023/07/17 04:43:57;;;;;;;;;1.00;1.00;;;;;20.31;49.11;101448.97;5078427;27;55339;-72
2023/07/17 04:46:23;;;;;;;;;0.67;0.67;;;;;20.45;49.31;101460.78;5079180;28;45570;-72
2023/07/17 04:48:49;;;;;;;;;1.00;1.00;;;;;20.04;49.12;101398.41;5078776;28;46090;-73
2023/07/17 04:51:14;;;;;;;;;0.00;0.00;;;;;20.47;49.56;101463.31;5078591;28;45414;-72
2023/07/17 04:53:40;;;;;;;;;1.00;1.00;;;;;20.45;49.39;101454.56;5078816;28;45386;-73
2023/07/17 04:56:06;;;;;;;;;1.00;1.00;;;;;20.49;49.39;101466.66;5077259;28;45555;-71
2023/07/17 04:58:34;;;;;;;;;1.00;1.00;;;;;20.51;49.19;101465.41;5077276;27;45507;-74
2023/07/17 05:01:01;;;;;;;;;4.67;2.67;;;;;20.50;49.28;101462.91;5059691;27;46162;-71
2023/07/17 05:03:29;;;;;;;;;1.00;1.00;;;;;20.34;49.60;101437.78;5078212;28;45391;-72
2023/07/17 05:05:54;;;;;;;;;1.33;1.00;;;;;20.44;49.67;101455.59;5077110;28;45517;-72
2023/07/17 05:08:20;;;;;;;;;2.00;1.00;;;;;20.43;49.39;101462.03;5076441;28;48224;-72
2023/07/17 05:10:55;;;;;;;;;1.67;1.67;;;;;20.42;49.74;101457.63;5078076;28;45807;-73
2023/07/17 05:13:21;;;;;;;;;1.00;1.00;;;;;20.51;49.30;101464.59;5078169;27;45469;-73
2023/07/17 05:15:47;;;;;;;;;1.00;1.00;;;;;20.53;49.54;101474.16;5078315;28;45533;-70
2023/07/17 05:18:12;;;;;;;;;0.67;0.67;;;;;20.52;49.54;101466.25;5078174;27;45955;-72
2023/07/17 05:20:37;;;;;;;;;1.67;1.00;;;;;20.55;49.50;101472.09;5076186;28;45382;-73
2023/07/17 05:23:03;;;;;;;;;1.33;1.33;;;;;20.57;49.18;101469.22;5059645;28;45528;-73
2023/07/17 05:25:28;;;;;;;;;1.33;1.33;;;;;20.63;48.98;101484.69;5077869;27;45457;-72
2023/07/17 05:27:53;;;;;;;;;1.00;1.00;;;;;20.61;48.71;101473.19;5059485;28;46523;-74
2023/07/17 05:30:19;;;;;;;;;2.33;1.00;;;;;20.69;48.69;101478.50;5059409;28;45479;-74
2023/07/17 05:32:44;;;;;;;;;0.50;0.50;;;;;20.41;48.92;101423.53;5059299;28;45546;-72
2023/07/17 05:35:09;;;;;;;;;2.00;2.00;;;;;20.68;48.90;101468.72;5078126;28;45339;-72
2023/07/17 05:37:35;;;;;;;;;1.00;1.00;;;;;20.56;48.63;101445.94;5076989;28;45807;-71
2023/07/17 05:40:00;;;;;;;;;2.00;1.67;;;;;20.52;48.82;101439.25;5077028;28;45343;-71
2023/07/17 05:42:25;;;;;;;;;3.00;2.00;;;;;20.72;48.65;101477.28;5077403;27;45266;-73
2023/07/17 05:44:51;;;;;;;;;2.67;2.67;;;;;20.75;48.46;101482.28;5077907;28;45236;-72
2023/07/17 05:47:16;;;;;;;;;2.00;1.75;;;;;20.65;48.34;101469.94;5077480;28;45488;-73
2023/07/17 05:49:41;;;;;;;;;1.00;1.00;;;;;20.21;48.40;101398.97;5077642;28;49704;-72
2023/07/17 05:52:07;;;;;;;;;2.00;2.00;;;;;20.77;48.51;101497.28;5077225;28;45458;-71
2023/07/17 05:54:33;;;;;;;;;1.00;1.00;;;;;20.72;48.55;101474.56;5072770;28;45383;-73
2023/07/17 05:56:58;;;;;;;;;1.33;1.33;;;;;20.84;48.22;101498.19;5037952;28;56999;-71
2023/07/17 05:59:23;;;;;;;;;1.67;1.67;;;;;20.82;48.54;101492.16;5057032;28;45464;-71
2023/07/17 06:01:49;;;;;;;;;1.00;1.00;;;;;20.88;48.43;101496.78;5058250;28;45533;-71
2023/07/17 06:04:14;;;;;;;;;2.00;1.00;;;;;20.99;48.51;101516.19;5070168;28;45488;-72
2023/07/17 06:06:39;;;;;;;;;1.33;1.33;;;;;21.32;48.13;101516.53;5063692;28;45605;-72
2023/07/17 06:09:05;;;;;;;;;2.00;1.25;;;;;21.84;47.41;101497.13;5065583;28;45432;-71
2023/07/17 06:11:31;;;;;;;;;4.00;3.00;;;;;22.42;45.73;101503.84;5051940;28;45423;-70
2023/07/17 06:13:57;;;;;;;;;1.50;1.50;;;;;22.95;44.91;101508.59;5064510;28;45269;-73
2023/07/17 06:16:22;;;;;;;;;0.50;0.50;;;;;23.36;44.15;101514.66;5066976;28;46811;-73
2023/07/17 06:18:47;;;;;;;;;3.00;3.00;;;;;23.73;43.29;101512.34;5075091;28;45419;-73
2023/07/17 06:21:13;;;;;;;;;2.00;1.00;;;;;24.05;42.52;101516.03;5043504;28;45269;-74
2023/07/17 06:23:38;;;;;;;;;1.00;1.00;;;;;24.33;41.85;101512.19;5067657;28;45459;-73
2023/07/17 06:26:04;;;;;;;;;1.00;1.00;;;;;24.54;41.29;101507.28;5065940;28;46755;-71
2023/07/17 06:28:30;;;;;;;;;1.00;1.00;;;;;24.78;40.55;101512.97;5046750;28;45515;-72
2023/07/17 06:30:56;;;;;;;;;2.25;1.00;;;;;25.11;40.06;101527.22;5068005;28;45378;-74
2023/07/17 06:33:23;;;;;;;;;2.33;1.00;;;;;25.25;39.69;101505.38;5076822;27;45440;-71
2023/07/17 06:35:48;;;;;;;;;2.25;2.25;;;;;25.55;39.42;101522.66;5076515;28;45678;-73
2023/07/17 06:38:13;;;;;;;;;2.00;2.00;;;;;25.74;38.61;101515.38;5076680;28;45451;-73
2023/07/17 06:40:39;;;;;;;;;1.75;1.75;;;;;25.54;39.01;101447.47;5076778;28;45442;-74
2023/07/17 06:43:04;;;;;;;;;2.50;2.50;;;;;26.07;38.34;101512.31;5077234;28;45471;-73
2023/07/17 06:45:30;;;;;;;;;1.67;1.67;;;;;26.19;38.61;101506.91;5076786;28;45422;-74
2023/07/17 06:47:55;;;;;;;;;1.00;1.00;;;;;26.29;37.93;101518.94;5058220;28;45351;-73
2023/07/17 06:50:20;;;;;;;;;3.67;3.00;;;;;26.43;37.47;101524.22;5079422;28;45291;-71
2023/07/17 06:52:46;;;;;;;;;1.50;1.50;;;;;26.44;38.30;101515.84;5080442;28;45317;-73
2023/07/17 06:55:12;;;;;;;;;1.50;0.75;;;;;26.56;36.86;101519.44;5079310;27;46511;-74
2023/07/17 06:57:37;;;;;;;;;3.00;1.33;;;;;26.55;37.00;101511.50;5045220;28;45810;-72
2023/07/17 07:00:05;;;;;;;;;2.33;2.33;;;;;26.71;37.16;101529.13;5038296;28;45395;-74
2023/07/17 07:02:31;;;;;;;;;1.00;1.00;;;;;26.79;37.83;101536.97;5039786;28;45384;-72
2023/07/17 07:04:56;;;;;;;;;1.50;1.50;;;;;26.78;36.52;101535.28;5038042;28;46498;-74
2023/07/17 07:07:22;;;;;;;;;2.25;2.25;;;;;26.78;36.79;101532.56;5039400;28;45221;-72
2023/07/17 07:09:47;;;;;;;;;2.33;1.67;;;;;26.84;36.05;101540.69;5039896;28;45814;-70
2023/07/17 07:12:13;;;;;;;;;1.00;1.00;;;;;26.89;35.44;101540.81;5039354;28;45485;-72
2023/07/17 07:14:38;;;;;;;;;2.33;2.33;;;;;26.68;35.61;101497.69;5038078;28;48780;-71
2023/07/17 07:17:04;;;;;;;;;2.00;2.00;;;;;26.90;36.01;101528.81;5039221;28;45315;-72
2023/07/17 07:19:29;;;;;;;;;2.50;2.50;;;;;27.05;36.17;101543.97;5039251;28;45517;-74
2023/07/17 07:21:55;;;;;;;;;2.00;2.00;;;;;26.98;35.63;101528.47;5039128;28;45462;-76
2023/07/17 07:24:20;;;;;;;;;1.00;1.00;;;;;27.03;34.50;101532.44;5039268;28;45996;-73
2023/07/17 07:26:45;;;;;;;;;0.25;0.25;;;;;27.08;35.80;101535.31;5039017;28;45562;-74
2023/07/17 07:29:11;;;;;;;;;1.00;1.00;;;;;27.05;34.74;101533.06;5037914;28;45289;-73
2023/07/17 07:31:36;;;;;;;;;2.00;0.00;;;;;27.10;33.90;101549.56;5039382;28;45480;-74
2023/07/17 07:34:02;;;;;;;;;1.75;1.75;;;;;27.06;34.99;101560.09;5038330;28;63153;-73
2023/07/17 07:36:28;;;;;;;;;2.00;2.00;;;;;27.00;34.59;101549.28;5038079;28;45321;-75
2023/07/17 07:38:54;;;;;;;;;1.25;1.00;;;;;26.94;35.45;101551.84;5037980;28;45330;-72
2023/07/17 07:41:20;;;;;;;;;8.67;7.00;;;;;26.74;35.63;101515.84;5039331;28;45318;-73
2023/07/17 07:43:45;;;;;;;;;7.67;5.67;;;;;26.68;34.22;101511.31;5038877;28;45886;-72
2023/07/17 07:46:10;;;;;;;;;1.00;0.00;;;;;26.56;34.21;101499.53;5038848;28;45245;-72
2023/07/17 07:48:36;;;;;;;;;4.75;3.00;;;;;26.82;35.10;101544.66;5039103;28;45302;-73
2023/07/17 07:51:02;;;;;;;;;1.67;1.67;;;;;26.61;36.04;101518.75;5039319;28;45485;-73
2023/07/17 07:53:27;;;;;;;;;2.00;2.00;;;;;26.88;36.28;101566.44;5038693;28;46555;-73
2023/07/17 07:55:53;;;;;;;;;2.00;1.00;;;;;26.96;35.42;101570.72;5036713;28;45506;-74
2023/07/17 07:58:18;;;;;;;;;3.25;3.25;;;;;26.95;34.84;101555.41;5075862;28;45410;-72
2023/07/17 08:00:44;;;;;;;;;3.25;1.00;;;;;26.92;34.45;101548.53;5060870;28;45426;-79
2023/07/17 08:03:09;;;;;;;;;0.50;0.50;;;;;26.93;33.83;101547.44;5061334;28;47330;-72
2023/07/17 08:05:34;;;;;;;;;2.25;1.50;;;;;26.97;33.98;101559.56;5080002;28;45506;-72
2023/07/17 08:08:00;;;;;;;;;3.00;1.00;;;;;26.92;33.74;101545.78;5079398;27;45493;-78
2023/07/17 08:10:25;;;;;;;;;1.33;1.33;;;;;26.96;34.35;101562.53;5078046;27;45403;-74
2023/07/17 08:12:50;;;;;;;;;2.50;1.25;;;;;26.91;33.98;101552.31;5052814;28;46585;-74
2023/07/17 08:15:16;;;;;;;;;1.25;1.00;;;;;26.96;33.89;101565.25;5079273;28;45439;-72
2023/07/17 08:17:41;;;;;;;;;1.00;1.00;;;;;26.58;33.50;101524.66;5078917;28;45562;-72
2023/07/17 08:20:07;;;;;;;;;2.00;0.75;;;;;26.83;33.82;101577.22;5076162;27;45303;-74
2023/07/17 08:22:33;;;;;;;;;1.50;1.50;;;;;26.87;33.56;101574.84;5060360;28;46443;-73
2023/07/17 08:24:58;;;;;;;;;2.00;2.00;;;;;26.88;33.41;101580.06;5078740;27;45229;-72
2023/07/17 08:27:24;;;;;;;;;2.00;2.00;;;;;26.82;33.39;101570.06;5078800;28;45502;-72
2023/07/17 08:29:49;;;;;;;;;2.00;2.00;;;;;26.94;33.13;101581.03;5078880;28;45345;-72
2023/07/17 08:32:14;;;;;;;;;2.00;2.00;;;;;26.98;33.62;101577.59;5078890;28;45821;-74
2023/07/17 08:34:40;;;;;;;;;5.00;5.00;;;;;27.04;33.50;101583.25;5060435;28;45311;-75
2023/07/17 08:37:05;;;;;;;;;0.67;0.67;;;;;27.07;33.23;101586.34;5078533;28;45463;-72
2023/07/17 08:39:30;;;;;;;;;0.25;0.25;;;;;26.90;32.60;101556.09;5079132;28;45353;-74
2023/07/17 08:41:56;;;;;;;;;4.00;4.00;;;;;27.04;33.13;101570.44;5078627;28;46367;-72
2023/07/17 08:44:21;;;;;;;;;2.00;2.00;;;;;27.08;33.18;101563.44;5078578;28;45302;-72
2023/07/17 08:46:50;;;;;;;;;1.00;1.00;;;;;26.80;33.08;101501.25;5078426;28;45879;-71
2023/07/17 08:49:18;;;;;;;;;5.00;3.00;;;;;27.19;33.41;101561.78;5078526;28;45245;-73
2023/07/17 08:51:46;;;;;;;;;3.00;3.00;;;;;27.33;33.45;101571.44;5059762;28;47898;-73
2023/07/17 08:54:14;;;;;;;;;3.67;2.00;;;;;27.39;32.97;101575.13;5077671;27;45312;-75
2023/07/17 08:56:42;;;;;;;;;2.33;2.00;;;;;27.42;32.36;101577.38;5060033;28;45369;-76
2023/07/17 08:59:10;;;;;;;;;1.33;1.33;;;;;27.40;32.54;101579.50;5074281;28;45560;-75
2023/07/17 09:01:37;;;;;;;;;1.00;1.00;;;;;27.31;32.30;101584.50;5060420;28;46612;-73
2023/07/17 09:04:06;;;;;;;;;1.00;1.00;;;;;27.26;32.40;101568.81;5072348;27;45350;-72
2023/07/17 09:06:32;;;;;;;;;2.33;2.33;;;;;27.00;32.30;101532.91;5061038;28;45238;-75
2023/07/17 09:08:57;;;;;;;;;2.67;2.67;;;;;27.32;32.30;101582.59;5071709;27;45394;-73
2023/07/17 09:11:22;;;;;;;;;4.33;2.67;;;;;27.35;32.41;101576.66;5078210;28;45445;-70
2023/07/17 09:13:49;;;;;;;;;1.00;0.00;;;;;27.32;31.37;101561.56;5052223;28;45453;-74
2023/07/17 09:16:20;;;;;;;;;0.33;0.33;;;;;27.16;31.86;101554.91;5053702;28;45274;-70
2023/07/17 09:18:46;;;;;;;;;2.00;2.00;;;;;27.29;32.16;101575.72;5078033;28;45494;-73
2023/07/17 09:21:17;;;;;;;;;2.00;2.00;;;;;27.12;31.85;101544.69;5073696;28;46414;-71
2023/07/17 09:23:51;;;;;;;;;2.00;0.67;;;;;27.23;32.28;101593.00;5067505;28;45470;-75
2023/07/17 09:26:19;;;;;;;;;0.00;0.00;;;;;27.21;32.43;101585.03;5061284;28;45225;-75
2023/07/17 09:28:55;;;;;;;;;2.67;1.00;;;;;27.27;32.26;101591.50;5074863;28;45514;-73
2023/07/17 09:31:28;;;;;;;;;2.00;2.00;;;;;27.28;31.82;101582.22;5050424;28;45504;-74
2023/07/17 09:33:56;;;;;;;;;2.67;2.67;;;;;27.22;32.44;101561.31;5057268;28;45425;-73
2023/07/17 09:36:22;;;;;;;;;0.50;0.50;;;;;27.47;31.64;101580.25;5077753;27;45621;-75
2023/07/17 09:38:52;;;;;;;;;3.00;2.00;;;;;27.49;31.62;101581.66;5072103;28;45407;-74
2023/07/17 09:41:23;;;;;;;;;5.00;4.33;;;;;27.56;32.73;101592.47;5057028;28;45268;-74
2023/07/17 09:43:53;;;;;;;;;3.00;2.00;;;;;27.51;31.73;101581.44;5072114;28;45468;-71
2023/07/17 09:46:19;;;;;;;;;0.33;0.33;;;;;27.42;31.59;101572.72;5077391;27;45667;-74
2023/07/17 09:48:45;;;;;;;;;2.00;2.00;;;;;27.45;32.10;101588.69;5058982;28;45517;-70
2023/07/17 09:51:12;;;;;;;;;1.33;1.33;;;;;27.38;31.91;101568.81;5059748;28;46342;-73
2023/07/17 09:53:39;;;;;;;;;3.00;0.67;;;;;27.43;31.52;101590.81;5066654;28;45589;-73
2023/07/17 09:56:09;;;;;;;;;3.00;2.00;;;;;27.42;31.77;101577.38;5077476;28;45364;-72
2023/07/17 09:58:36;;;;;;;;;2.00;2.00;;;;;27.39;31.42;101581.41;5037054;28;45344;-72
2023/07/17 10:01:03;;;;;;;;;2.00;1.00;;;;;27.41;31.93;101581.16;5036804;28;47049;-71
2023/07/17 10:03:31;;;;;;;;;2.33;2.33;;;;;26.62;31.53;101446.75;5037844;28;45379;-77
2023/07/17 10:05:58;;;;;;;;;2.33;2.33;;;;;27.39;31.46;101573.22;5038479;28;45618;-71
2023/07/17 10:08:28;;;;;;;;;3.33;3.33;;;;;27.41;31.14;101579.25;5030339;28;45608;-72
2023/07/17 10:10:54;;;;;;;;;1.50;1.00;;;;;27.34;31.67;101564.91;5029445;28;45550;-73
2023/07/17 10:13:20;;;;;;;;;0.33;0.33;;;;;27.48;31.70;101582.75;5033493;28;45281;-70
2023/07/17 10:15:47;;;;;;;;;0.50;0.50;;;;;27.49;30.72;101573.47;5030429;28;45450;-71
2023/07/17 10:18:12;;;;;;;;;0.25;0.00;;;;;27.34;31.20;101570.38;5031329;28;45200;-70
2023/07/17 10:20:39;;;;;;;;;1.00;1.00;;;;;27.37;31.53;101575.34;5016601;28;45467;-70
2023/07/17 10:23:10;;;;;;;;;1.00;1.00;;;;;27.20;31.41;101564.28;5019578;28;45439;-73
2023/07/17 10:25:36;;;;;;;;;1.00;1.00;;;;;27.23;31.46;101582.94;5026906;28;45460;-74
2023/07/17 10:31:31;;;;;;;;;2.00;2.00;;;;;27.14;31.58;101567.13;5015566;28;45519;-72
2023/07/17 10:34:03;;;;;;;;;2.00;2.00;;;;;27.07;31.53;101552.75;5019422;28;45306;-73
2023/07/17 10:36:45;;;;;;;;;1.00;1.00;;;;;26.87;32.16;101537.47;5020804;28;45529;-71
2023/07/17 10:39:19;;;;;;;;;1.00;1.00;;;;;27.11;31.69;101576.59;5018657;28;45361;-75
2023/07/17 10:41:49;;;;;;;;;1.00;1.00;;;;;27.06;32.11;101583.84;5013355;28;45766;-72
2023/07/17 10:44:19;;;;;;;;;1.00;1.00;;;;;26.96;32.32;101568.81;5013285;28;45594;-72
2023/07/17 10:46:45;;;;;;;;;1.67;0.00;;;;;26.91;31.95;101579.59;5014054;28;45862;-73
2023/07/17 10:49:13;;;;;;;;;1.33;1.33;;;;;26.71;31.85;101565.41;5013610;28;45794;-73
2023/07/17 10:51:44;;;;;;;;;4.33;3.67;;;;;26.64;31.95;101560.06;5013591;28;45718;-73
2023/07/17 10:54:11;;;;;;;;;2.00;0.00;;;;;26.62;31.63;101556.69;5013667;28;45428;-73
2023/07/17 10:56:37;;;;;;;;;2.67;1.67;;;;;26.52;31.51;101536.50;5026481;28;45381;-73
2023/07/17 10:59:04;;;;;;;;;1.33;0.33;;;;;26.75;31.35;101572.06;5059376;28;45558;-74
2023/07/17 11:01:30;;;;;;;;;1.33;0.00;;;;;26.71;30.71;101565.41;5059958;28;46117;-72
2023/07/17 11:03:56;;;;;;;;;3.00;1.00;;;;;26.77;31.10;101583.56;5059952;28;45373;-74
2023/07/17 11:06:25;;;;;;;;;3.00;1.00;;;;;26.76;31.03;101583.81;5060272;28;45273;-72
2023/07/17 11:08:52;;;;;;;;;3.00;1.67;;;;;26.76;31.51;101578.34;5041757;28;45280;-73
2023/07/17 11:11:19;;;;;;;;;1.00;1.00;;;;;26.79;31.32;101573.25;5041435;28;47583;-74
2023/07/17 11:13:45;;;;;;;;;5.00;5.00;;;;;26.41;31.57;101527.19;5058360;28;45517;-72
2023/07/17 11:16:11;;;;;;;;;1.00;1.00;;;;;26.72;31.79;101593.50;5059905;28;45352;-70
2023/07/17 11:18:47;;;;;;;;;2.00;2.00;;;;;26.75;31.65;101585.69;5060066;28;45549;-72
2023/07/17 11:21:18;;;;;;;;;3.67;1.00;;;;;26.46;31.24;101543.72;5059512;28;47064;-71
2023/07/17 11:23:48;;;;;;;;;0.33;0.33;;;;;26.70;31.40;101580.13;5059182;28;45275;-72